AIQ359 VTBD-WSSS
Flight info
| Callsign | AIQ359 |
|---|---|
| Flight time | N/A |
| Altitude | 39000 |
| Route | KIGOB3C KIGOB Y11 PASVA Y514 NUFFA DCT PIBAP DCT PASPU DCT NYLON |
| Aircraft | A20N/M-SDE2E3FGHIRWXY/LB1 |
Departure
| Time | 2026-05-04 09:37 |
|---|---|
| Airport | Don Mueang International Airport (VTBD) |
Arrival
| Time | N/A |
|---|---|
| Airport | Singapore Changi Airport (WSSS) |
| Time | Latitude | Longitude | Altitude | Speed | Heading |
|---|---|---|---|---|---|
| 2026-05-04 09:08 | 13.92130 | 100.60445 | 21 ft | 0 kts | 208° |
| 2026-05-04 09:27 | 13.92138 | 100.60449 | 20 ft | 4 kts | 208° |
| 2026-05-04 09:27 | 13.92161 | 100.60462 | 21 ft | 2 kts | 209° |
| 2026-05-04 09:27 | 13.92178 | 100.60474 | 23 ft | 4 kts | 240° |
| 2026-05-04 09:27 | 13.92181 | 100.60505 | 23 ft | 4 kts | 283° |
| 2026-05-04 09:28 | 13.92175 | 100.60532 | 20 ft | 4 kts | 286° |
| 2026-05-04 09:28 | 13.92168 | 100.60553 | 20 ft | 4 kts | 293° |
| 2026-05-04 09:28 | 13.92156 | 100.60578 | 23 ft | 4 kts | 300° |
| 2026-05-04 09:28 | 13.92146 | 100.60594 | 23 ft | 4 kts | 301° |
| 2026-05-04 09:29 | 13.92136 | 100.60612 | 21 ft | 4 kts | 299° |
| 2026-05-04 09:29 | 13.92122 | 100.60636 | 23 ft | 4 kts | 299° |
| 2026-05-04 09:29 | 13.92110 | 100.60659 | 20 ft | 4 kts | 309° |
| 2026-05-04 09:29 | 13.92094 | 100.60669 | 24 ft | 4 kts | 28° |
| 2026-05-04 09:30 | 13.92073 | 100.60652 | 23 ft | 4 kts | 36° |
| 2026-05-04 09:30 | 13.92066 | 100.60647 | 22 ft | 0 kts | 28° |
| 2026-05-04 09:32 | 13.92076 | 100.60653 | 23 ft | 5 kts | 29° |
| 2026-05-04 09:32 | 13.92088 | 100.60694 | 21 ft | 9 kts | 107° |
| 2026-05-04 09:34 | 13.92642 | 100.61109 | 20 ft | 16 kts | 115° |
| 2026-05-04 09:34 | 13.92570 | 100.61189 | 19 ft | 15 kts | 164° |
| 2026-05-04 09:34 | 13.92510 | 100.61170 | 19 ft | 0 kts | 208° |
| 2026-05-04 09:35 | 13.92509 | 100.61169 | 19 ft | 2 kts | 209° |
| 2026-05-04 09:35 | 13.92307 | 100.61056 | 22 ft | 71 kts | 208° |
| 2026-05-04 09:35 | 13.91637 | 100.60680 | 18 ft | 149 kts | 208° |
| 2026-05-04 09:35 | 13.90625 | 100.60100 | 379 ft | 176 kts | 208° |
| 2026-05-04 09:37 | 13.85023 | 100.50655 | 4189 ft | 275 kts | 246° |
| 2026-05-04 09:37 | 13.84259 | 100.48835 | 4900 ft | 279 kts | 240° |
| 2026-05-04 09:38 | 13.83142 | 100.47239 | 5635 ft | 279 kts | 227° |
| 2026-05-04 09:38 | 13.81822 | 100.45774 | 6413 ft | 280 kts | 224° |
| 2026-05-04 09:38 | 13.80470 | 100.44328 | 7140 ft | 281 kts | 224° |
| 2026-05-04 09:38 | 13.79050 | 100.42941 | 7865 ft | 283 kts | 215° |
| 2026-05-04 09:39 | 13.77296 | 100.42070 | 8586 ft | 282 kts | 191° |
| 2026-05-04 09:39 | 13.75343 | 100.41954 | 9294 ft | 284 kts | 176° |
| 2026-05-04 09:39 | 13.73357 | 100.42120 | 9926 ft | 289 kts | 174° |
| 2026-05-04 09:39 | 13.71293 | 100.42337 | 10257 ft | 307 kts | 174° |
| 2026-05-04 09:40 | 13.69103 | 100.42565 | 10494 ft | 325 kts | 174° |
| 2026-05-04 09:40 | 13.66843 | 100.42792 | 10932 ft | 334 kts | 175° |
| 2026-05-04 09:40 | 13.64515 | 100.43019 | 11488 ft | 339 kts | 175° |
| 2026-05-04 09:40 | 13.62150 | 100.43245 | 12104 ft | 345 kts | 174° |
| 2026-05-04 09:41 | 13.59739 | 100.43474 | 12694 ft | 350 kts | 174° |
| 2026-05-04 09:42 | 13.47428 | 100.55361 | 16617 ft | 374 kts | 126° |
| 2026-05-04 09:43 | 13.45887 | 100.57529 | 17152 ft | 377 kts | 126° |
| 2026-05-04 09:43 | 13.44329 | 100.59714 | 17697 ft | 380 kts | 126° |
| 2026-05-04 09:43 | 13.42760 | 100.61909 | 18196 ft | 383 kts | 126° |
| 2026-05-04 09:43 | 13.41174 | 100.64127 | 18609 ft | 387 kts | 126° |
| 2026-05-04 09:44 | 13.39558 | 100.66350 | 19010 ft | 390 kts | 129° |
| 2026-05-04 09:44 | 13.37651 | 100.68341 | 19392 ft | 393 kts | 142° |
| 2026-05-04 09:44 | 13.35400 | 100.69946 | 19774 ft | 396 kts | 148° |
| 2026-05-04 09:46 | 13.18637 | 100.80522 | 22696 ft | 416 kts | 149° |
| 2026-05-04 09:46 | 13.16167 | 100.82085 | 23136 ft | 418 kts | 148° |
| 2026-05-04 09:46 | 13.13684 | 100.83654 | 23498 ft | 422 kts | 149° |
| 2026-05-04 09:47 | 13.11134 | 100.85070 | 23833 ft | 424 kts | 156° |
| 2026-05-04 09:47 | 13.08397 | 100.86201 | 24229 ft | 425 kts | 160° |
| 2026-05-04 09:49 | 12.88401 | 100.92802 | 26790 ft | 440 kts | 163° |
| 2026-05-04 09:49 | 12.85484 | 100.93771 | 27127 ft | 442 kts | 163° |
| 2026-05-04 09:49 | 12.82556 | 100.94747 | 27488 ft | 444 kts | 163° |
| 2026-05-04 09:51 | 12.64717 | 101.00640 | 29448 ft | 454 kts | 165° |
| 2026-05-04 09:51 | 12.61712 | 101.01522 | 29747 ft | 456 kts | 165° |
| 2026-05-04 09:51 | 12.58647 | 101.02389 | 30014 ft | 458 kts | 166° |
| 2026-05-04 09:51 | 12.55561 | 101.03250 | 30232 ft | 461 kts | 166° |
| 2026-05-04 09:52 | 12.52459 | 101.04116 | 30436 ft | 464 kts | 165° |
| 2026-05-04 09:52 | 12.49340 | 101.04992 | 30682 ft | 465 kts | 165° |
| 2026-05-04 09:52 | 12.46218 | 101.05876 | 31002 ft | 465 kts | 165° |
| 2026-05-04 09:52 | 12.43102 | 101.06760 | 31317 ft | 465 kts | 165° |
| 2026-05-04 09:53 | 12.39991 | 101.07643 | 31683 ft | 463 kts | 165° |
| 2026-05-04 09:53 | 12.36850 | 101.08351 | 31984 ft | 463 kts | 172° |
| 2026-05-04 09:53 | 12.33643 | 101.08627 | 32244 ft | 463 kts | 178° |
| 2026-05-04 09:53 | 12.30463 | 101.08716 | 32529 ft | 463 kts | 180° |
| 2026-05-04 09:54 | 12.27244 | 101.08728 | 32836 ft | 462 kts | 181° |
| 2026-05-04 09:54 | 12.24033 | 101.08701 | 33174 ft | 461 kts | 181° |
| 2026-05-04 09:54 | 12.20821 | 101.08658 | 33416 ft | 462 kts | 181° |
| 2026-05-04 09:54 | 12.17610 | 101.08614 | 33717 ft | 461 kts | 181° |
| 2026-05-04 09:55 | 12.14404 | 101.08574 | 34018 ft | 460 kts | 181° |
| 2026-05-04 09:55 | 12.11203 | 101.08540 | 34271 ft | 459 kts | 181° |
| 2026-05-04 09:55 | 12.08013 | 101.08510 | 34560 ft | 458 kts | 181° |
| 2026-05-04 09:55 | 12.04830 | 101.08484 | 34788 ft | 458 kts | 180° |
| 2026-05-04 09:56 | 12.01693 | 101.08460 | 35059 ft | 456 kts | 180° |
| 2026-05-04 09:56 | 11.98521 | 101.08436 | 35298 ft | 456 kts | 180° |
| 2026-05-04 09:56 | 11.95349 | 101.08413 | 35497 ft | 456 kts | 180° |
| 2026-05-04 09:56 | 11.92181 | 101.08389 | 35734 ft | 455 kts | 181° |
| 2026-05-04 09:57 | 11.89014 | 101.08365 | 35943 ft | 455 kts | 181° |
| 2026-05-04 09:57 | 11.85847 | 101.08341 | 36115 ft | 455 kts | 181° |
| 2026-05-04 09:57 | 11.82686 | 101.08316 | 36367 ft | 454 kts | 181° |
| 2026-05-04 09:57 | 11.79537 | 101.08292 | 36618 ft | 452 kts | 180° |
| 2026-05-04 09:58 | 11.76440 | 101.08268 | 36869 ft | 450 kts | 180° |
| 2026-05-04 09:58 | 11.73313 | 101.08244 | 37088 ft | 449 kts | 180° |
| 2026-05-04 09:58 | 11.70189 | 101.08221 | 37264 ft | 449 kts | 180° |
| 2026-05-04 10:00 | 11.48636 | 101.11030 | 38509 ft | 445 kts | 169° |
| 2026-05-04 10:00 | 11.45633 | 101.11600 | 38635 ft | 445 kts | 169° |
| 2026-05-04 10:02 | 11.24321 | 101.15571 | 38857 ft | 444 kts | 170° |
| 2026-05-04 10:04 | 11.03064 | 101.19509 | 38856 ft | 445 kts | 170° |
| 2026-05-04 10:04 | 10.96962 | 101.20639 | 38856 ft | 446 kts | 170° |
| 2026-05-04 10:05 | 10.90902 | 101.21761 | 38853 ft | 445 kts | 170° |
| 2026-05-04 10:05 | 10.84802 | 101.22889 | 38854 ft | 445 kts | 170° |
| 2026-05-04 10:06 | 10.78705 | 101.24016 | 38854 ft | 446 kts | 170° |
| 2026-05-04 10:06 | 10.72603 | 101.25144 | 38855 ft | 446 kts | 170° |
| 2026-05-04 10:08 | 10.51057 | 101.29122 | 38852 ft | 451 kts | 169° |
| 2026-05-04 10:08 | 10.44882 | 101.30261 | 38853 ft | 451 kts | 169° |
| 2026-05-04 10:09 | 10.38758 | 101.31391 | 38851 ft | 450 kts | 169° |
| 2026-05-04 10:09 | 10.32599 | 101.32528 | 38853 ft | 450 kts | 169° |
| 2026-05-04 10:10 | 10.26429 | 101.33671 | 38854 ft | 451 kts | 169° |
| 2026-05-04 10:10 | 10.20256 | 101.34815 | 38855 ft | 451 kts | 169° |
| 2026-05-04 10:11 | 10.14122 | 101.35951 | 38855 ft | 451 kts | 169° |
| 2026-05-04 10:11 | 10.07948 | 101.37094 | 38850 ft | 451 kts | 169° |
| 2026-05-04 10:12 | 10.01777 | 101.38236 | 38850 ft | 451 kts | 169° |
| 2026-05-04 10:12 | 9.95617 | 101.39375 | 38852 ft | 448 kts | 169° |
| 2026-05-04 10:13 | 9.89547 | 101.40497 | 38850 ft | 446 kts | 169° |
| 2026-05-04 10:13 | 9.83449 | 101.41624 | 38850 ft | 445 kts | 169° |
| 2026-05-04 10:14 | 9.77347 | 101.42751 | 38851 ft | 446 kts | 169° |
| 2026-05-04 10:16 | 9.52964 | 101.47251 | 38851 ft | 448 kts | 169° |
| 2026-05-04 10:16 | 9.46833 | 101.48381 | 38850 ft | 448 kts | 169° |
| 2026-05-04 10:17 | 9.40700 | 101.49512 | 38849 ft | 448 kts | 169° |
| 2026-05-04 10:19 | 9.16144 | 101.54034 | 38853 ft | 454 kts | 169° |
| 2026-05-04 10:19 | 9.09974 | 101.55169 | 38852 ft | 454 kts | 169° |
| 2026-05-04 10:20 | 9.03765 | 101.56311 | 38853 ft | 453 kts | 169° |
| 2026-05-04 10:20 | 8.97558 | 101.57452 | 38854 ft | 453 kts | 169° |
| 2026-05-04 10:21 | 8.91352 | 101.58594 | 38853 ft | 453 kts | 169° |
| 2026-05-04 10:21 | 8.85203 | 101.59726 | 38851 ft | 450 kts | 169° |
| 2026-05-04 10:22 | 8.75992 | 101.61421 | 38850 ft | 448 kts | 169° |
| 2026-05-04 10:23 | 8.69855 | 101.62549 | 38854 ft | 449 kts | 169° |
| 2026-05-04 10:25 | 8.45395 | 101.67044 | 38852 ft | 443 kts | 169° |
| 2026-05-04 10:25 | 8.39342 | 101.68155 | 38850 ft | 443 kts | 169° |
| 2026-05-04 10:26 | 8.33284 | 101.69267 | 38852 ft | 448 kts | 169° |
| 2026-05-04 10:26 | 8.27127 | 101.70405 | 38851 ft | 450 kts | 169° |
| 2026-05-04 10:27 | 8.20974 | 101.71539 | 38850 ft | 449 kts | 169° |
| 2026-05-04 10:27 | 8.14829 | 101.72668 | 38854 ft | 448 kts | 169° |
| 2026-05-04 10:28 | 8.08780 | 101.73776 | 38853 ft | 442 kts | 169° |
| 2026-05-04 10:28 | 8.02733 | 101.74886 | 38852 ft | 441 kts | 169° |
| 2026-05-04 10:29 | 7.96691 | 101.76004 | 38853 ft | 441 kts | 169° |
| 2026-05-04 10:29 | 7.90649 | 101.77124 | 38853 ft | 442 kts | 169° |
| 2026-05-04 10:30 | 7.84604 | 101.78245 | 38850 ft | 442 kts | 169° |
| 2026-05-04 10:30 | 7.78600 | 101.79356 | 38856 ft | 442 kts | 169° |
| 2026-05-04 10:31 | 7.72551 | 101.80476 | 38849 ft | 442 kts | 169° |
| 2026-05-04 10:32 | 7.51442 | 101.84380 | 38848 ft | 442 kts | 169° |
| 2026-05-04 10:33 | 7.45399 | 101.85497 | 38855 ft | 442 kts | 169° |
| 2026-05-04 10:33 | 7.39340 | 101.86617 | 38853 ft | 445 kts | 168° |
| 2026-05-04 10:34 | 7.33266 | 101.87740 | 38851 ft | 448 kts | 168° |
| 2026-05-04 10:34 | 7.27135 | 101.88868 | 38851 ft | 448 kts | 169° |
| 2026-05-04 10:35 | 7.21007 | 101.89991 | 38850 ft | 447 kts | 169° |
| 2026-05-04 10:35 | 7.14882 | 101.91118 | 38852 ft | 447 kts | 169° |
| 2026-05-04 10:36 | 7.08757 | 101.92248 | 38849 ft | 448 kts | 169° |
| 2026-05-04 10:36 | 7.02668 | 101.93372 | 38852 ft | 449 kts | 169° |
| 2026-05-04 10:37 | 6.96501 | 101.94509 | 38847 ft | 451 kts | 169° |
| 2026-05-04 10:37 | 6.90327 | 101.95648 | 38848 ft | 451 kts | 169° |
| 2026-05-04 10:39 | 6.71539 | 101.99111 | 38836 ft | 468 kts | 169° |
| 2026-05-04 10:39 | 6.68324 | 101.99703 | 38839 ft | 472 kts | 168° |
| 2026-05-04 10:40 | 6.61854 | 102.00894 | 38836 ft | 471 kts | 169° |
| 2026-05-04 10:40 | 6.55419 | 102.02078 | 38837 ft | 470 kts | 169° |
| 2026-05-04 10:41 | 6.48989 | 102.03261 | 38834 ft | 470 kts | 168° |
| 2026-05-04 10:41 | 6.42597 | 102.04438 | 38837 ft | 470 kts | 169° |
| 2026-05-04 10:42 | 6.36148 | 102.05625 | 38837 ft | 473 kts | 169° |
| 2026-05-04 10:42 | 6.29672 | 102.06816 | 38837 ft | 473 kts | 169° |
| 2026-05-04 10:43 | 6.23282 | 102.08393 | 38835 ft | 473 kts | 162° |
| 2026-05-04 10:45 | 5.98275 | 102.16582 | 38834 ft | 473 kts | 161° |
| 2026-05-04 10:45 | 5.93085 | 102.18289 | 38849 ft | 472 kts | 161° |